createdAt,value
2018-06-15T00:00:20.725Z,42.14
2018-06-15T00:01:29.862Z,42.82
2018-06-15T00:02:38.724Z,41.67
2018-06-15T00:03:47.585Z,42.44
2018-06-15T00:04:56.495Z,41.96
2018-06-15T00:06:05.637Z,39.47
2018-06-15T00:07:14.497Z,42.05
2018-06-15T00:08:23.357Z,42.24
2018-06-15T00:09:32.223Z,39.28
2018-06-15T00:10:41.335Z,41.57
2018-06-15T00:11:50.197Z,42.05
2018-06-15T00:12:59.057Z,41.86
2018-06-15T00:14:07.921Z,41.86
2018-06-15T00:15:16.781Z,42.14
2018-06-15T00:16:25.638Z,41.96
2018-06-15T00:17:34.777Z,41.96
2018-06-15T00:18:43.917Z,42.05
2018-06-15T00:19:52.777Z,42.14
2018-06-15T00:21:01.640Z,41.28
2018-06-15T00:22:10.651Z,40.23
2018-06-15T00:23:19.794Z,41.48
2018-06-15T00:24:28.931Z,40.71
2018-06-15T00:25:37.792Z,42.14
2018-06-15T00:26:46.654Z,41.57
2018-06-15T00:27:55.614Z,39.64
2018-06-15T00:29:04.474Z,40.23
2018-06-15T00:30:13.336Z,40.33
2018-06-15T00:31:22.196Z,41.28
2018-06-15T00:32:31.062Z,39.56
2018-06-15T00:33:39.917Z,40.61
2018-06-15T00:34:48.779Z,40.9
2018-06-15T00:35:57.638Z,40.71
2018-06-15T00:37:06.501Z,40.9
2018-06-15T00:38:16.153Z,40.81
2018-06-15T00:39:25.364Z,41.57
2018-06-15T00:40:34.226Z,41.09
2018-06-15T00:41:43.087Z,41.48
2018-06-15T00:42:51.947Z,40.71
2018-06-15T00:44:00.809Z,41.38
2018-06-15T00:45:09.868Z,40.9
2018-06-15T00:46:18.733Z,40.78
2018-06-15T00:47:27.599Z,40.42
2018-06-15T00:48:36.457Z,40.81
2018-06-15T00:49:45.316Z,40.61
2018-06-15T00:50:54.326Z,38.51
2018-06-15T00:52:03.463Z,37.07
2018-06-15T00:53:12.324Z,40.61
2018-06-15T00:54:21.460Z,40.71
2018-06-15T00:55:30.323Z,40.42
2018-06-15T00:56:39.338Z,40.69
2018-06-15T00:57:48.200Z,40.21
2018-06-15T00:58:57.349Z,40.59
2018-06-15T01:00:06.209Z,40.33
2018-06-15T01:01:15.348Z,40.21
2018-06-15T01:02:24.541Z,40.31
2018-06-15T01:03:33.411Z,40.33
2018-06-15T01:04:42.264Z,40.42
2018-06-15T01:05:51.125Z,39.94
2018-06-15T01:06:59.989Z,39.65
2018-06-15T01:08:09.126Z,38.78
2018-06-15T01:09:18.011Z,40.42
2018-06-15T01:10:26.849Z,40.23
2018-06-15T01:11:35.712Z,38.51
2018-06-15T01:12:44.572Z,40.33
2018-06-15T01:13:53.912Z,40.12
2018-06-15T01:15:02.777Z,40.23
2018-06-15T01:16:11.913Z,40.71
2018-06-15T01:17:20.776Z,40.59
2018-06-15T01:18:29.916Z,40.5
2018-06-15T01:19:39.205Z,40.12
2018-06-15T01:20:48.620Z,40.71
2018-06-15T01:21:57.755Z,40.88
2018-06-15T01:23:06.893Z,40.69
2018-06-15T01:24:15.756Z,39.54
2018-06-15T01:25:24.716Z,38.6
2018-06-15T01:26:33.590Z,40.42
2018-06-15T01:27:42.437Z,40.23
2018-06-15T01:28:51.302Z,39.65
2018-06-15T01:30:00.438Z,39.54
2018-06-15T01:31:09.448Z,39.45
2018-06-15T01:32:18.311Z,40.31
2018-06-15T01:33:27.450Z,40.5
2018-06-15T01:34:36.585Z,40.41
2018-06-15T01:35:45.445Z,40.31
2018-06-15T01:36:54.362Z,39.73
2018-06-15T01:38:03.228Z,40.5
2018-06-15T01:39:12.087Z,39.92
2018-06-15T01:40:21.226Z,40.31
2018-06-15T01:41:30.097Z,40.69
2018-06-15T01:42:39.007Z,35.81
2018-06-15T01:43:48.145Z,39.83
2018-06-15T01:44:57.005Z,40.5
2018-06-15T01:46:05.868Z,39.64
2018-06-15T01:47:14.729Z,40.31
2018-06-15T01:48:23.919Z,40.59
2018-06-15T01:49:32.778Z,40.5
2018-06-15T01:50:41.916Z,40.5
2018-06-15T01:51:51.058Z,40.59
2018-06-15T01:52:59.919Z,40.5
2018-06-15T01:54:08.930Z,40.21
2018-06-15T01:55:17.790Z,40.59
2018-06-15T01:56:26.651Z,40.31
2018-06-15T01:57:35.518Z,40.59
2018-06-15T01:58:44.379Z,40.41
2018-06-15T01:59:53.238Z,40.31
2018-06-15T02:01:02.383Z,40.59
2018-06-15T02:02:11.241Z,40.59
2018-06-15T02:03:20.101Z,40.41
2018-06-15T02:04:28.964Z,40.69
2018-06-15T02:05:37.823Z,40.31
2018-06-15T02:06:46.687Z,40.41
2018-06-15T02:07:55.823Z,40.31
2018-06-15T02:09:04.684Z,40.69
2018-06-15T02:10:13.543Z,40.59
2018-06-15T02:11:22.788Z,39.45
2018-06-15T02:12:31.925Z,40.41
2018-06-15T02:13:40.783Z,40.31
2018-06-15T02:14:49.642Z,39.64
2018-06-15T02:15:58.505Z,40.59
2018-06-15T02:17:07.364Z,40.48
2018-06-15T02:18:16.589Z,40.38
2018-06-15T02:19:25.448Z,40.38
2018-06-15T02:20:34.312Z,40.77
2018-06-15T02:21:43.167Z,40.29
2018-06-15T02:22:52.459Z,40.38
2018-06-15T02:24:01.596Z,40.67
2018-06-15T02:25:10.459Z,40.67
2018-06-15T02:26:19.319Z,40.29
2018-06-15T02:27:28.182Z,40.38
2018-06-15T02:28:37.572Z,40.38
2018-06-15T02:29:46.683Z,40.38
2018-06-15T02:30:55.847Z,39.9
2018-06-15T02:32:04.725Z,39.62
2018-06-15T02:33:13.871Z,39.62
2018-06-15T02:34:23.358Z,39.52
2018-06-15T02:35:32.224Z,39.62
2018-06-15T02:36:41.364Z,39.62
2018-06-15T02:37:50.499Z,38.95
2018-06-15T02:39:00.188Z,39.43
2018-06-15T02:40:09.676Z,39.43
2018-06-15T02:41:19.367Z,38.76
2018-06-15T02:42:28.226Z,38.85
2018-06-15T02:43:37.089Z,38.95
2018-06-15T02:44:46.228Z,39.52
2018-06-15T02:45:55.468Z,38.56
2018-06-15T02:47:04.894Z,38.56
2018-06-15T02:48:13.757Z,38.95
2018-06-15T02:49:22.619Z,38.56
2018-06-15T02:50:31.481Z,38.18
2018-06-15T02:51:40.671Z,38.28
2018-06-15T02:52:50.085Z,38.28
2018-06-15T02:53:59.223Z,38.56
2018-06-15T02:55:08.640Z,38.47
2018-06-15T02:56:17.507Z,38.28
2018-06-15T02:57:26.517Z,37.61
2018-06-15T02:58:35.662Z,37.51
2018-06-15T02:59:44.527Z,37.41
2018-06-15T03:00:53.666Z,37.51
2018-06-15T03:02:03.083Z,37.32
2018-06-15T03:03:12.274Z,37.13
2018-06-15T03:04:21.978Z,37.32
2018-06-15T03:05:31.119Z,37.13
2018-06-15T03:06:39.985Z,36.75
2018-06-15T03:07:48.847Z,36.94
2018-06-15T03:08:57.807Z,36.94
2018-06-15T03:10:06.953Z,37.04
2018-06-15T03:11:16.099Z,37.04
2018-06-15T03:12:25.245Z,36.94
2018-06-15T03:13:34.109Z,37.04
2018-06-15T03:14:43.367Z,36.75
2018-06-15T03:15:52.501Z,36.84
2018-06-15T03:17:01.643Z,37.32
2018-06-15T03:18:10.785Z,37.04
2018-06-15T03:19:19.645Z,37.61
2018-06-15T03:20:28.655Z,37.61
2018-06-15T03:21:37.515Z,37.32
2018-06-15T03:22:46.375Z,37.23
2018-06-15T03:23:55.510Z,36.75
2018-06-15T03:25:04.386Z,36.84
2018-06-15T03:26:13.555Z,36.84
2018-06-15T03:27:22.697Z,36.94
2018-06-15T03:28:31.555Z,36.65
2018-06-15T03:29:40.419Z,36.94
2018-06-15T03:30:49.330Z,37.13
2018-06-15T03:31:58.844Z,36.94
2018-06-15T03:33:08.275Z,36.46
2018-06-15T03:34:17.129Z,36.75
2018-06-15T03:35:26.548Z,36.94
2018-06-15T03:36:35.409Z,37.32
2018-06-15T03:37:44.272Z,37.23
2018-06-15T03:38:53.131Z,36.94
2018-06-15T03:40:01.991Z,36.84
2018-06-15T03:41:10.902Z,37.04
2018-06-15T03:42:19.771Z,36.55
2018-06-15T03:43:28.954Z,36.63
2018-06-15T03:44:37.814Z,36.35
2018-06-15T03:45:46.673Z,36.08
2018-06-15T03:46:55.533Z,35.86
2018-06-15T03:48:04.392Z,35.5
2018-06-15T03:49:13.677Z,34.91
2018-06-15T03:50:22.818Z,34.91
2018-06-15T03:51:31.736Z,34.91
2018-06-15T03:52:40.537Z,34.91
2018-06-15T03:53:49.394Z,34.34
2018-06-15T03:54:58.604Z,34.43
2018-06-15T03:56:07.470Z,33.86
2018-06-15T03:57:16.328Z,33.67
2018-06-15T03:58:25.468Z,33.69
2018-06-15T03:59:34.607Z,33.4
2018-06-15T04:00:43.819Z,33.48
2018-06-15T04:01:52.959Z,33.49
2018-06-15T04:03:02.101Z,33.69
2018-06-15T04:04:11.570Z,33.69
2018-06-15T04:05:20.704Z,33.48
2018-06-15T04:06:29.669Z,33.57
2018-06-15T04:07:38.887Z,33.48
2018-06-15T04:08:48.426Z,33.69
2018-06-15T04:09:57.288Z,33.48
2018-06-15T04:11:06.429Z,33.69
2018-06-15T04:12:15.294Z,33.48
2018-06-15T04:13:24.433Z,33.69
2018-06-15T04:14:33.294Z,33.78
2018-06-15T04:15:42.430Z,33.01
2018-06-15T04:16:51.293Z,33.69
2018-06-15T04:18:00.477Z,34.06
2018-06-15T04:19:09.338Z,34.45
2018-06-15T04:20:18.473Z,34.06
2018-06-15T04:21:27.334Z,33.78
2018-06-15T04:22:36.194Z,34.45
2018-06-15T04:23:45.056Z,34.36
2018-06-15T04:24:53.923Z,35.12
2018-06-15T04:26:02.784Z,35.02
2018-06-15T04:27:11.923Z,34.93
2018-06-15T04:28:20.782Z,34.36
2018-06-15T04:29:29.995Z,34.45
2018-06-15T04:30:38.856Z,34.36
2018-06-15T04:31:47.717Z,34.06
2018-06-15T04:32:56.577Z,33.87
2018-06-15T04:34:05.438Z,33.87
2018-06-15T04:35:14.347Z,33.97
2018-06-15T04:36:23.484Z,33.69
2018-06-15T04:37:32.345Z,33.87
2018-06-15T04:38:41.481Z,33.87
2018-06-15T04:39:50.617Z,33.78
2018-06-15T04:40:59.627Z,34.16
2018-06-15T04:42:08.765Z,34.16
2018-06-15T04:43:17.903Z,35.02
2018-06-15T04:44:26.763Z,34.93
2018-06-15T04:45:35.624Z,34.93
2018-06-15T04:46:44.835Z,34.93
2018-06-15T04:47:54.531Z,34.93
2018-06-15T04:49:03.401Z,34.93
2018-06-15T04:50:12.542Z,34.55
2018-06-15T04:51:21.403Z,34.93
2018-06-15T04:52:30.258Z,34.83
2018-06-15T04:53:39.122Z,35.02
2018-06-15T04:54:47.983Z,35.02
2018-06-15T04:55:56.845Z,34.93
2018-06-15T04:57:05.708Z,34.16
2018-06-15T04:58:14.571Z,34.93
2018-06-15T04:59:23.720Z,35.12
2018-06-15T05:00:33.138Z,35.02
2018-06-15T05:01:42.013Z,35.02
2018-06-15T05:02:50.867Z,34.83
2018-06-15T05:03:59.729Z,34.94
2018-06-15T05:05:08.874Z,34.85
2018-06-15T05:06:17.737Z,36.29
2018-06-15T05:07:26.598Z,35.88
2018-06-15T05:08:35.459Z,36.57
2018-06-15T05:09:44.321Z,36.65
2018-06-15T05:10:53.184Z,36.65
2018-06-15T05:12:02.047Z,37.04
2018-06-15T05:13:10.916Z,36.57
2018-06-15T05:14:20.339Z,36.38
2018-06-15T05:15:29.200Z,36.47
2018-06-15T05:16:38.061Z,36.77
2018-06-15T05:17:46.969Z,36.77
2018-06-15T05:18:55.836Z,36.96
2018-06-15T05:20:04.697Z,36.96
2018-06-15T05:21:13.833Z,37.05
2018-06-15T05:22:22.972Z,36.29
2018-06-15T05:23:31.832Z,37.34
2018-06-15T05:24:40.691Z,37.63
2018-06-15T05:25:49.837Z,37.82
2018-06-15T05:26:59.006Z,38.1
2018-06-15T05:28:08.146Z,37.15
2018-06-15T05:29:17.159Z,37.82
2018-06-15T05:30:26.019Z,37.92
2018-06-15T05:31:34.881Z,38.78
2018-06-15T05:32:43.745Z,40.02
2018-06-15T05:33:52.608Z,40.21
2018-06-15T05:35:01.899Z,42.51
2018-06-15T05:36:10.759Z,43.18
2018-06-15T05:37:19.625Z,43.27
2018-06-15T05:38:28.488Z,43.85
2018-06-15T05:39:37.626Z,43.66
2018-06-15T05:40:46.637Z,44.13
2018-06-15T05:41:56.054Z,44.23
2018-06-15T05:43:04.919Z,45.19
2018-06-15T05:44:13.782Z,44.35
2018-06-15T05:45:22.931Z,42.05
2018-06-15T05:46:31.903Z,44.45
2018-06-15T05:47:40.956Z,47.13
2018-06-15T05:48:50.155Z,46.75
2018-06-15T05:49:59.645Z,46.94
2018-06-15T05:51:08.986Z,44.64
2018-06-15T05:52:18.055Z,45.79
2018-06-15T05:53:27.128Z,47.89
2018-06-15T05:54:36.361Z,48.28
2018-06-15T05:55:45.848Z,49.24
2018-06-15T05:56:54.783Z,48.85
2018-06-15T05:58:03.645Z,49.52
2018-06-15T05:59:12.799Z,49.71
2018-06-15T06:00:21.660Z,50
2018-06-15T06:01:30.673Z,49.14
2018-06-15T06:02:39.533Z,47.03
2018-06-15T06:03:48.756Z,50.03
2018-06-15T06:04:57.962Z,49.91
2018-06-15T06:06:06.824Z,49.93
2018-06-15T06:07:15.687Z,49.07
2018-06-15T06:08:24.553Z,53.77
2018-06-15T06:09:33.462Z,54.72
2018-06-15T06:10:42.322Z,53.96
2018-06-15T06:11:51.193Z,52.71
2018-06-15T06:13:00.333Z,55.11
2018-06-15T06:14:09.492Z,57.79
2018-06-15T06:15:18.596Z,57.41
2018-06-15T06:16:27.458Z,56.26
2018-06-15T06:17:36.323Z,55.68
2018-06-15T06:18:45.185Z,56.45
2018-06-15T06:19:54.087Z,58.08
2018-06-15T06:21:03.327Z,60.67
2018-06-15T06:22:12.483Z,61.72
2018-06-15T06:23:21.347Z,60.76
2018-06-15T06:24:30.208Z,58.27
2018-06-15T06:25:39.069Z,60.47
2018-06-15T06:26:48.115Z,60.28
2018-06-15T06:27:57.294Z,60
2018-06-15T06:29:06.161Z,59.52
2018-06-15T06:30:15.026Z,60
2018-06-15T06:31:23.889Z,60.28
2018-06-15T06:32:32.854Z,58.46
2018-06-15T06:33:42.506Z,58.37
2018-06-15T06:34:51.370Z,59.23
2018-06-15T06:36:00.507Z,57.31
2018-06-15T06:37:09.644Z,58.49
2018-06-15T06:38:19.137Z,57.31
2018-06-15T06:39:28.047Z,58.87
2018-06-15T06:40:36.911Z,59.45
2018-06-15T06:41:45.774Z,58.11
2018-06-15T06:42:54.640Z,57.43
2018-06-15T06:44:03.657Z,61.08
2018-06-15T06:45:12.521Z,61.66
2018-06-15T06:46:21.384Z,61.66
2018-06-15T06:47:30.246Z,61.18
2018-06-15T06:48:39.109Z,60.79
2018-06-15T06:49:48.022Z,62.81
2018-06-15T06:50:56.888Z,61.37
2018-06-15T06:52:05.750Z,61.27
2018-06-15T06:53:14.612Z,61.08
2018-06-15T06:54:23.476Z,61.4
2018-06-15T06:55:32.439Z,60.44
2018-06-15T06:56:41.581Z,61.21
2018-06-15T06:57:50.448Z,63.03
2018-06-15T06:58:59.859Z,59
2018-06-15T07:00:09.004Z,62.74
2018-06-15T07:01:18.068Z,63.12
2018-06-15T07:02:26.935Z,60.63
2018-06-15T07:03:35.800Z,63.99
2018-06-15T07:04:44.662Z,64.76
2018-06-15T07:05:53.809Z,64.47
2018-06-15T07:07:02.821Z,64.66
2018-06-15T07:08:11.685Z,63.89
2018-06-15T07:09:20.548Z,64.56
2018-06-15T07:10:29.413Z,65.52
2018-06-15T07:11:38.272Z,65.05
2018-06-15T07:12:47.286Z,65.14
2018-06-15T07:13:56.149Z,64.56
2018-06-15T07:15:05.012Z,64.56
2018-06-15T07:16:13.876Z,65.52
2018-06-15T07:17:23.296Z,59.96
2018-06-15T07:18:32.445Z,67.92
2018-06-15T07:19:41.584Z,66.29
2018-06-15T07:20:50.445Z,66.61
2018-06-15T07:21:59.313Z,70.64
2018-06-15T07:23:08.455Z,71.8
2018-06-15T07:24:17.767Z,70.03
2018-06-15T07:25:26.637Z,70.13
2018-06-15T07:26:35.775Z,71.22
2018-06-15T07:27:44.918Z,66.61
2018-06-15T07:28:54.062Z,65.17
2018-06-15T07:30:02.927Z,70.45
2018-06-15T07:31:12.347Z,71.8
2018-06-15T07:32:21.206Z,70.64
2018-06-15T07:33:30.205Z,75.15
2018-06-15T07:34:39.766Z,75.45
2018-06-15T07:35:48.629Z,74.16
2018-06-15T07:36:57.766Z,76.65
2018-06-15T07:38:06.634Z,77.8
2018-06-15T07:39:15.495Z,80.3
2018-06-15T07:40:24.356Z,81.45
2018-06-15T07:41:33.225Z,77.71
2018-06-15T07:42:42.087Z,80.78
2018-06-15T07:43:51.228Z,79.57
2018-06-15T07:45:00.374Z,79.09
2018-06-15T07:46:09.807Z,80.91
2018-06-15T07:47:19.366Z,79.19
2018-06-15T07:48:28.234Z,79.86
2018-06-15T07:49:37.371Z,80.53
2018-06-15T07:50:46.510Z,79.34
2018-06-15T07:51:55.651Z,81.01
2018-06-15T07:53:04.715Z,81.1
2018-06-15T07:54:13.578Z,80.34
2018-06-15T07:55:22.442Z,82.16
2018-06-15T07:56:31.306Z,82.26
2018-06-15T07:57:40.169Z,84.85
2018-06-15T07:58:49.383Z,85.24
2018-06-15T07:59:58.520Z,84.47
2018-06-15T08:01:07.387Z,77.65
2018-06-15T08:02:16.256Z,77.84
2018-06-15T08:03:25.394Z,84.75
2018-06-15T08:04:34.608Z,83.8
2018-06-15T08:05:43.470Z,84.47
2018-06-15T08:06:52.332Z,84.27
2018-06-15T08:08:01.195Z,85.62
2018-06-15T08:09:10.336Z,84.37
2018-06-15T08:10:19.550Z,84.37
2018-06-15T08:11:28.413Z,85.85
2018-06-15T08:12:37.276Z,83.84
2018-06-15T08:13:46.139Z,84.8
2018-06-15T08:14:55.001Z,85.85
2018-06-15T08:16:04.014Z,86.43
2018-06-15T08:17:12.877Z,83.16
2018-06-15T08:18:22.015Z,84.51
2018-06-15T08:19:30.883Z,84.41
2018-06-15T08:20:39.744Z,85.95
2018-06-15T08:21:48.807Z,85.57
2018-06-15T08:22:57.672Z,85.66
2018-06-15T08:24:06.536Z,85.85
2018-06-15T08:25:15.397Z,85.57
2018-06-15T08:26:24.258Z,86.33
2018-06-15T08:27:33.273Z,85.57
2018-06-15T08:28:42.138Z,85.28
2018-06-15T08:29:50.999Z,85.47
2018-06-15T08:30:59.863Z,85.57
2018-06-15T08:32:08.726Z,84.55
2018-06-15T08:33:17.843Z,85.28
2018-06-15T08:34:26.713Z,84.45
2018-06-15T08:35:35.572Z,84.55
2018-06-15T08:36:44.439Z,85.03
2018-06-15T08:37:53.581Z,85.18
2018-06-15T08:39:02.793Z,85.89
2018-06-15T08:40:11.931Z,87.49
2018-06-15T08:41:21.071Z,85.08
2018-06-15T08:42:29.932Z,84.6
2018-06-15T08:43:38.794Z,85.41
2018-06-15T08:44:47.706Z,84.12
2018-06-15T08:45:56.847Z,84.26
2018-06-15T08:47:05.984Z,85.8
2018-06-15T08:48:15.132Z,85.41
2018-06-15T08:49:24.012Z,84.36
2018-06-15T08:50:32.874Z,86.38
2018-06-15T08:51:41.736Z,86.47
2018-06-15T08:52:50.707Z,86.66
2018-06-15T08:53:59.865Z,85.03
2018-06-15T08:55:08.728Z,84.45
2018-06-15T08:56:17.592Z,85.03
2018-06-15T08:57:26.730Z,84.07
2018-06-15T08:58:35.595Z,84.5
2018-06-15T08:59:44.465Z,84.59
2018-06-15T09:00:53.324Z,85.17
2018-06-15T09:02:02.192Z,84.88
2018-06-15T09:03:11.056Z,84.78
2018-06-15T09:04:19.921Z,85.27
2018-06-15T09:05:29.065Z,83.92
2018-06-15T09:06:38.207Z,83.92
2018-06-15T09:07:47.173Z,83
2018-06-15T09:08:56.035Z,81.84
2018-06-15T09:10:04.899Z,83.29
2018-06-15T09:11:13.763Z,80.98
2018-06-15T09:12:22.627Z,80.79
2018-06-15T09:13:31.970Z,80.6
2018-06-15T09:14:41.110Z,81.84
2018-06-15T09:15:49.974Z,81.65
2018-06-15T09:16:58.838Z,83.58
2018-06-15T09:18:07.756Z,80.4
2018-06-15T09:19:17.351Z,79.35
2018-06-15T09:20:26.493Z,79.25
2018-06-15T09:21:35.356Z,80.69
2018-06-15T09:22:44.220Z,82.32
2018-06-15T09:23:53.357Z,81.56
2018-06-15T09:25:02.274Z,80.25
2018-06-15T09:26:11.135Z,80.21
2018-06-15T09:27:19.998Z,79.05
2018-06-15T09:28:28.862Z,79.53
2018-06-15T09:29:37.728Z,78.61
2018-06-15T09:30:47.040Z,78.23
2018-06-15T09:31:56.184Z,80.35
2018-06-15T09:33:05.048Z,78.9
2018-06-15T09:34:13.913Z,77.36
2018-06-15T09:35:22.778Z,78.61
2018-06-15T09:36:31.995Z,78.9
2018-06-15T09:37:41.137Z,81.7
2018-06-15T09:38:50.280Z,78.9
2018-06-15T09:39:59.430Z,78.52
2018-06-15T09:41:08.577Z,77.36
2018-06-15T09:42:17.917Z,79.77
2018-06-15T09:43:26.785Z,80.73
2018-06-15T09:44:35.652Z,80
2018-06-15T09:45:44.520Z,78.56
2018-06-15T09:46:53.384Z,77.69
2018-06-15T09:48:02.531Z,77.78
2018-06-15T09:49:11.396Z,78.08
2018-06-15T09:50:20.549Z,79.03
2018-06-15T09:51:29.973Z,79.61
2018-06-15T09:52:38.839Z,77.31
2018-06-15T09:53:47.821Z,78.17
2018-06-15T09:54:57.320Z,76.15
2018-06-15T09:56:06.192Z,76.98
2018-06-15T09:57:15.055Z,76.69
2018-06-15T09:58:23.918Z,76.34
2018-06-15T09:59:33.214Z,75.57
2018-06-15T10:00:42.081Z,75.38
2018-06-15T10:01:50.947Z,73.84
2018-06-15T10:03:00.090Z,74.45
2018-06-15T10:04:09.241Z,73.58
2018-06-15T10:05:18.161Z,72.05
2018-06-15T10:06:27.028Z,72.53
2018-06-15T10:07:35.892Z,72.24
2018-06-15T10:08:44.762Z,71.66
2018-06-15T10:09:53.629Z,73.39
2018-06-15T10:11:02.496Z,73.01
2018-06-15T10:12:11.365Z,72.72
2018-06-15T10:13:20.231Z,73.3
2018-06-15T10:14:29.098Z,75.32
2018-06-15T10:15:37.967Z,74.84
2018-06-15T10:16:47.267Z,73.2
2018-06-15T10:17:56.078Z,74.16
2018-06-15T10:19:05.220Z,75.13
2018-06-15T10:20:14.084Z,76.48
2018-06-15T10:21:22.947Z,74.49
2018-06-15T10:22:31.913Z,74.93
2018-06-15T10:23:40.783Z,72.33
2018-06-15T10:24:49.647Z,73.14
2018-06-15T10:25:58.796Z,74.16
2018-06-15T10:27:07.659Z,73.68
2018-06-15T10:28:16.626Z,70.98
2018-06-15T10:29:25.494Z,74.45
2018-06-15T10:30:34.360Z,79.75
2018-06-15T10:31:43.225Z,76.76
2018-06-15T10:32:52.447Z,75.9
2018-06-15T10:34:01.532Z,72.24
2018-06-15T10:35:10.396Z,72.91
2018-06-15T10:36:19.260Z,73.43
2018-06-15T10:37:28.407Z,73.14
2018-06-15T10:38:37.270Z,74.68
2018-06-15T10:39:46.191Z,74.49
2018-06-15T10:40:55.061Z,70.64
2018-06-15T10:42:03.925Z,77.28
2018-06-15T10:43:12.795Z,74.1
2018-06-15T10:44:21.679Z,71.31
2018-06-15T10:45:30.869Z,69.77
2018-06-15T10:46:40.341Z,71.31
2018-06-15T10:47:49.206Z,71.25
2018-06-15T10:48:58.075Z,70.25
2018-06-15T10:50:06.947Z,72.12
2018-06-15T10:51:15.879Z,69.38
2018-06-15T10:52:24.742Z,68.26
2018-06-15T10:53:33.609Z,67.68
2018-06-15T10:54:42.488Z,70.28
2018-06-15T10:55:51.639Z,72.12
2018-06-15T10:57:00.833Z,73.5
2018-06-15T10:58:09.700Z,70.22
2018-06-15T10:59:18.567Z,68.29
2018-06-15T11:00:27.722Z,69.07
2018-06-15T11:01:36.864Z,68.04
2018-06-15T11:02:46.263Z,68.68
2018-06-15T11:03:55.131Z,68.77
2018-06-15T11:05:04.071Z,67.81
2018-06-15T11:06:12.938Z,68.01
2018-06-15T11:07:21.938Z,70.03
2018-06-15T11:08:30.903Z,67.04
2018-06-15T11:09:40.096Z,69.26
2018-06-15T11:10:49.275Z,68.39
2018-06-15T11:11:58.182Z,70.42
2018-06-15T11:13:07.052Z,68.19
2018-06-15T11:14:15.918Z,67.71
2018-06-15T11:15:24.786Z,70.32
2018-06-15T11:16:33.653Z,71.15
2018-06-15T11:17:42.800Z,73.08
2018-06-15T11:18:51.666Z,73.27
2018-06-15T11:20:00.631Z,72.89
2018-06-15T11:21:09.498Z,72.41
2018-06-15T11:22:18.363Z,70.32
2018-06-15T11:23:27.232Z,73.89
2018-06-15T11:24:36.105Z,68.97
2018-06-15T11:25:45.125Z,69.07
2018-06-15T11:26:54.266Z,68.52
2018-06-15T11:28:03.134Z,69.49
2018-06-15T11:29:12.000Z,67.85
2018-06-15T11:30:21.148Z,67.36
2018-06-15T11:31:30.340Z,67.65
2018-06-15T11:32:39.209Z,70
2018-06-15T11:33:48.360Z,70.1
2018-06-15T11:34:57.562Z,68.46
2018-06-15T11:36:06.729Z,65.08
2018-06-15T11:37:15.657Z,67.2
2018-06-15T11:38:24.537Z,65.85
2018-06-15T11:39:33.413Z,67.11
2018-06-15T11:40:42.569Z,63.89
2018-06-15T11:41:51.451Z,63.63
2018-06-15T11:43:00.379Z,63.56
2018-06-15T11:44:09.535Z,63.85
2018-06-15T11:45:18.692Z,62.5
2018-06-15T11:46:27.569Z,62.6
2018-06-15T11:47:36.446Z,61.34
2018-06-15T11:48:45.425Z,61.76
2018-06-15T11:49:54.860Z,60.47
2018-06-15T11:51:04.011Z,60.21
2018-06-15T11:52:12.879Z,59.92
2018-06-15T11:53:21.748Z,59.83
2018-06-15T11:54:30.765Z,60.89
2018-06-15T11:55:39.632Z,58.98
2018-06-15T11:56:48.500Z,59.38
2018-06-15T11:57:57.368Z,60.63
2018-06-15T11:59:06.237Z,60.24
2018-06-15T12:00:15.581Z,59.76
2018-06-15T12:01:24.722Z,58.28
2018-06-15T12:02:33.591Z,60.28
2018-06-15T12:03:42.458Z,58.76
2018-06-15T12:04:51.607Z,58.83
2018-06-15T12:06:01.005Z,56.9
2018-06-15T12:07:10.076Z,59.22
2018-06-15T12:08:18.946Z,60.18
2018-06-15T12:09:27.812Z,60.47
2018-06-15T12:10:36.683Z,60.18
2018-06-15T12:11:45.652Z,59.31
2018-06-15T12:12:54.517Z,60.86
2018-06-15T12:14:03.385Z,60.28
2018-06-15T12:15:12.257Z,59.7
2018-06-15T12:16:21.128Z,59.51
2018-06-15T12:17:30.044Z,60.47
2018-06-15T12:18:38.908Z,62.21
2018-06-15T12:19:47.775Z,60.64
2018-06-15T12:20:56.646Z,59
2018-06-15T12:22:05.515Z,59.41
2018-06-15T12:23:14.810Z,59.7
2018-06-15T12:24:23.678Z,61.54
2018-06-15T12:25:32.546Z,61.44
2018-06-15T12:26:41.421Z,61.15
2018-06-15T12:27:50.303Z,62.12
2018-06-15T12:28:59.381Z,60.09
2018-06-15T12:30:09.225Z,61.05
2018-06-15T12:31:18.153Z,61.05
2018-06-15T12:32:27.308Z,60.28
2018-06-15T12:33:36.189Z,60.47
2018-06-15T12:34:45.216Z,64.05
2018-06-15T12:35:54.362Z,63.37
2018-06-15T12:37:03.228Z,61.44
2018-06-15T12:38:12.097Z,60.96
2018-06-15T12:39:20.968Z,60.86
2018-06-15T12:40:29.935Z,64.72
2018-06-15T12:41:38.805Z,62.31
2018-06-15T12:42:47.692Z,61.73
2018-06-15T12:43:56.556Z,61.83
2018-06-15T12:45:05.424Z,65.4
2018-06-15T12:46:14.680Z,64.72
2018-06-15T12:47:23.699Z,63.37
2018-06-15T12:48:32.835Z,58.67
2018-06-15T12:49:41.709Z,56.86
2018-06-15T12:50:50.861Z,56.92
2018-06-15T12:51:59.836Z,53.07
2018-06-15T12:53:08.709Z,52.22
2018-06-15T12:54:17.587Z,50.79
2018-06-15T12:55:26.735Z,51.37
2018-06-15T12:56:35.610Z,52.25
2018-06-15T12:57:44.551Z,52.51
2018-06-15T12:58:53.428Z,52.03
2018-06-15T13:00:02.576Z,52.9
2018-06-15T13:01:11.451Z,53.65
2018-06-15T13:02:20.328Z,52.97
2018-06-15T13:03:29.344Z,53.94
2018-06-15T13:04:38.220Z,54.52
2018-06-15T13:05:47.096Z,53.43
2018-06-15T13:06:55.965Z,53.07
2018-06-15T13:08:04.944Z,52.22
2018-06-15T13:09:14.212Z,52.06
2018-06-15T13:10:23.087Z,53.22
2018-06-15T13:11:32.235Z,52.08
2018-06-15T13:12:41.379Z,49.49
2018-06-15T13:13:50.256Z,49.99
2018-06-15T13:14:59.407Z,51.38
2018-06-15T13:16:08.566Z,49.63
2018-06-15T13:17:17.443Z,48.1
2018-06-15T13:18:26.316Z,47.3
2018-06-15T13:19:35.192Z,47.47
2018-06-15T13:20:44.171Z,48.15
2018-06-15T13:21:53.101Z,49.07
2018-06-15T13:23:02.320Z,50.99
2018-06-15T13:24:11.469Z,50.89
2018-06-15T13:25:20.343Z,52.15
2018-06-15T13:26:29.652Z,52.73
2018-06-15T13:27:38.529Z,49.99
2018-06-15T13:28:47.681Z,50.94
2018-06-15T13:29:56.843Z,51.9
2018-06-15T13:31:06.148Z,52.78
2018-06-15T13:32:15.390Z,52.1
2018-06-15T13:33:24.452Z,50.94
2018-06-15T13:34:33.322Z,51.42
2018-06-15T13:35:42.196Z,52.08
2018-06-15T13:36:51.062Z,52.66
2018-06-15T13:37:59.983Z,52.36
2018-06-15T13:39:08.859Z,53.63
2018-06-15T13:40:18.010Z,52.85
2018-06-15T13:41:27.157Z,53.23
2018-06-15T13:42:36.028Z,54.69
2018-06-15T13:43:45.234Z,55.46
2018-06-15T13:44:54.660Z,54.23
2018-06-15T13:46:03.807Z,52.78
2018-06-15T13:47:12.680Z,54.23
2018-06-15T13:48:21.824Z,54.52
2018-06-15T13:49:30.843Z,53.17
2018-06-15T13:50:39.717Z,53.85
2018-06-15T13:51:48.744Z,54.52
2018-06-15T13:52:57.616Z,55.49
2018-06-15T13:54:06.764Z,56.46
2018-06-15T13:55:16.013Z,54.91
2018-06-15T13:56:25.158Z,53.36
2018-06-15T13:57:34.031Z,52.78
2018-06-15T13:58:42.903Z,52.66
2018-06-15T13:59:51.772Z,54.21
2018-06-15T14:01:00.814Z,53.07
2018-06-15T14:02:09.684Z,53.07
2018-06-15T14:03:18.557Z,52.58
2018-06-15T14:04:27.428Z,52.97
2018-06-15T14:05:36.298Z,52.87
2018-06-15T14:06:45.269Z,51.25
2018-06-15T14:07:54.144Z,52.8
2018-06-15T14:09:03.018Z,50.89
2018-06-15T14:10:11.887Z,48.39
2018-06-15T14:11:20.759Z,48.61
2018-06-15T14:12:29.685Z,47.55
2018-06-15T14:13:38.562Z,48.15
2018-06-15T14:14:47.437Z,46.62
2018-06-15T14:15:56.319Z,47.69
2018-06-15T14:17:05.471Z,47.01
2018-06-15T14:18:14.733Z,48.95
2018-06-15T14:19:23.606Z,49.82
2018-06-15T14:20:32.484Z,47.57
2018-06-15T14:21:41.635Z,47.25
2018-06-15T14:22:50.510Z,48.03
2018-06-15T14:23:59.438Z,48.88
2018-06-15T14:25:08.724Z,50.62
2018-06-15T14:26:17.810Z,49.75
2018-06-15T14:27:26.685Z,51.01
2018-06-15T14:28:35.559Z,50.24
2018-06-15T14:29:44.785Z,51.69
2018-06-15T14:30:53.660Z,51.62
2018-06-15T14:32:02.531Z,52.01
2018-06-15T14:33:11.959Z,49.77
2018-06-15T14:34:20.832Z,50.24
2018-06-15T14:35:29.711Z,51.11
2018-06-15T14:36:38.862Z,51.21
2018-06-15T14:37:47.734Z,51.4
2018-06-15T14:38:56.608Z,51.31
2018-06-15T14:40:05.767Z,52.06
2018-06-15T14:41:15.119Z,52.64
2018-06-15T14:42:23.997Z,53.7
2018-06-15T14:43:33.137Z,52.06
2018-06-15T14:44:42.291Z,53.31
2018-06-15T14:45:51.171Z,54.67
2018-06-15T14:47:00.145Z,53.12
2018-06-15T14:48:09.020Z,51.79
2018-06-15T14:49:17.894Z,51.79
2018-06-15T14:50:26.764Z,53.15
2018-06-15T14:51:35.638Z,53.05